createdAt,value
2019-04-01T00:00:24.403Z,0.00
2019-04-01T00:02:28.567Z,0.00
2019-04-01T00:03:28.801Z,0.00
2019-04-01T00:05:32.971Z,0.00
2019-04-01T00:06:33.204Z,1.32
2019-04-01T00:08:37.351Z,9.48
2019-04-01T00:09:37.584Z,8.06
2019-04-01T00:11:41.747Z,12.42
2019-04-01T00:12:41.984Z,11.00
2019-04-01T00:14:46.150Z,14.41
2019-04-01T00:15:46.387Z,14.32
2019-04-01T00:17:50.542Z,14.03
2019-04-01T00:19:02.324Z,12.80
2019-04-01T00:20:54.932Z,12.90
2019-04-01T00:21:55.170Z,14.41
2019-04-01T00:23:59.314Z,17.54
2019-04-01T00:24:59.549Z,15.08
2019-04-01T00:27:03.709Z,14.98
2019-04-01T00:28:03.946Z,12.42
2019-04-01T00:29:57.038Z,12.90
2019-04-01T00:30:57.274Z,13.84
2019-04-01T00:33:01.418Z,14.70
2019-04-01T00:34:01.653Z,12.90
2019-04-01T00:36:05.817Z,12.89
2019-04-01T00:37:06.053Z,18.30
2019-04-01T00:39:10.199Z,24.28
2019-04-01T00:40:10.432Z,23.14
2019-04-01T00:42:14.601Z,21.91
2019-04-01T00:43:14.836Z,23.24
2019-04-01T00:45:19.008Z,21.70
2019-04-01T00:46:19.244Z,22.56
2019-04-01T00:48:23.388Z,24.55
2019-04-01T00:49:23.621Z,32.24
2019-04-01T00:51:27.794Z,33.29
2019-04-01T00:52:28.032Z,33.48
2019-04-01T00:54:32.181Z,31.29
2019-04-01T00:55:32.414Z,30.35
2019-04-01T00:57:36.583Z,32.62
2019-04-01T00:58:36.815Z,30.90
2019-04-01T01:00:40.976Z,31.09
2019-04-01T01:01:41.213Z,29.95
2019-04-01T01:03:45.358Z,37.16
2019-04-01T01:04:45.593Z,42.27
2019-04-01T01:06:49.779Z,38.67
2019-04-01T01:07:50.011Z,38.58
2019-04-01T01:09:43.097Z,37.35
2019-04-01T01:10:43.344Z,34.78
2019-04-01T01:12:47.495Z,37.35
2019-04-01T01:13:47.730Z,38.77
2019-04-01T01:15:51.902Z,40.85
2019-04-01T01:16:52.135Z,42.08
2019-04-01T01:18:56.281Z,39.53
2019-04-01T01:19:56.513Z,42.47
2019-04-01T01:22:00.682Z,42.47
2019-04-01T01:23:00.915Z,44.17
2019-04-01T01:25:05.059Z,45.78
2019-04-01T01:26:05.294Z,42.47
2019-04-01T01:28:09.469Z,48.25
2019-04-01T01:29:09.705Z,48.06
2019-04-01T01:31:13.871Z,50.62
2019-04-01T01:32:14.104Z,49.57
2019-04-01T01:34:18.259Z,49.67
2019-04-01T01:35:18.502Z,47.30
2019-04-01T01:37:22.661Z,51.66
2019-04-01T01:38:22.895Z,52.23
2019-04-01T01:40:15.968Z,50.71
2019-04-01T01:41:16.206Z,49.86
2019-04-01T01:43:20.365Z,52.80
2019-04-01T01:44:20.598Z,51.85
2019-04-01T01:46:24.764Z,49.19
2019-04-01T01:47:24.996Z,49.01
2019-04-01T01:49:29.140Z,49.95
2019-04-01T01:50:29.377Z,51.76
2019-04-01T01:52:33.546Z,54.88
2019-04-01T01:53:33.777Z,55.45
2019-04-01T01:55:37.919Z,56.12
2019-04-01T01:56:38.151Z,54.32
2019-04-01T01:58:42.314Z,55.93
2019-04-01T01:59:42.545Z,55.26
2019-04-01T02:01:46.711Z,55.80
2019-04-01T02:02:46.946Z,55.71
2019-04-01T02:04:51.087Z,54.95
2019-04-01T02:05:51.340Z,52.51
2019-04-01T02:07:55.486Z,60.54
2019-04-01T02:08:55.718Z,61.52
2019-04-01T02:10:59.868Z,59.78
2019-04-01T02:12:00.110Z,59.03
2019-04-01T02:14:04.266Z,58.65
2019-04-01T02:15:04.495Z,59.97
2019-04-01T02:17:08.665Z,60.25
2019-04-01T02:18:08.898Z,60.73
2019-04-01T02:20:01.988Z,57.60
2019-04-01T02:21:02.207Z,55.33
2019-04-01T02:23:06.375Z,56.85
2019-04-01T02:24:06.609Z,57.13
2019-04-01T02:26:10.751Z,55.71
2019-04-01T02:27:10.986Z,58.17
2019-04-01T02:29:15.153Z,61.49
2019-04-01T02:30:15.387Z,64.61
2019-04-01T02:32:19.549Z,61.49
2019-04-01T02:33:19.784Z,65.28
2019-04-01T02:35:24.011Z,66.80
2019-04-01T02:36:24.157Z,64.42
2019-04-01T02:38:28.324Z,61.49
2019-04-01T02:39:28.556Z,58.45
2019-04-01T02:41:32.697Z,58.93
2019-04-01T02:42:32.930Z,59.78
2019-04-01T02:44:37.106Z,57.39
2019-04-01T02:45:37.343Z,55.77
2019-04-01T02:47:41.517Z,54.55
2019-04-01T02:48:41.745Z,57.10
2019-04-01T02:50:45.902Z,53.50
2019-04-01T02:51:46.141Z,52.46
2019-04-01T02:53:50.308Z,50.85
2019-04-01T02:54:50.546Z,51.51
2019-04-01T02:56:54.709Z,52.08
2019-04-01T02:57:54.947Z,52.84
2019-04-01T02:59:48.059Z,52.94
2019-04-01T03:00:48.287Z,54.07
2019-04-01T03:02:52.471Z,53.69
2019-04-01T03:03:52.706Z,51.61
2019-04-01T03:05:56.856Z,50.19
2019-04-01T03:06:57.095Z,51.51
2019-04-01T03:09:01.264Z,53.88
2019-04-01T03:10:01.517Z,50.57
2019-04-01T03:12:05.654Z,48.68
2019-04-01T03:13:05.891Z,49.43
2019-04-01T03:15:10.054Z,53.03
2019-04-01T03:16:10.293Z,50.85
2019-04-01T03:18:14.461Z,49.43
2019-04-01T03:19:14.701Z,46.85
2019-04-01T03:21:18.847Z,47.80
2019-04-01T03:22:19.084Z,44.58
2019-04-01T03:24:23.251Z,46.19
2019-04-01T03:25:23.491Z,47.13
2019-04-01T03:27:27.637Z,44.67
2019-04-01T03:28:27.874Z,44.77
2019-04-01T03:30:32.054Z,45.34
2019-04-01T03:31:32.558Z,45.05
2019-04-01T03:33:36.444Z,42.50
2019-04-01T03:34:36.689Z,42.02
2019-04-01T03:36:40.885Z,39.84
2019-04-01T03:37:41.071Z,38.52
2019-04-01T03:39:34.173Z,42.30
2019-04-01T03:40:34.420Z,41.74
2019-04-01T03:42:38.560Z,41.08
2019-04-01T03:43:38.795Z,41.64
2019-04-01T03:45:42.971Z,40.98
2019-04-01T03:46:43.200Z,42.88
2019-04-01T03:48:47.365Z,42.50
2019-04-01T03:49:47.605Z,41.17
2019-04-01T03:51:51.751Z,40.51
2019-04-01T03:52:51.984Z,39.37
2019-04-01T03:54:56.154Z,36.04
2019-04-01T03:55:56.392Z,36.23
2019-04-01T03:58:00.552Z,34.81
2019-04-01T03:59:00.777Z,33.39
2019-04-01T04:01:04.945Z,33.01
2019-04-01T04:02:05.184Z,33.39
2019-04-01T04:04:09.382Z,32.82
2019-04-01T04:05:09.612Z,33.39
2019-04-01T04:07:13.759Z,33.39
2019-04-01T04:08:13.999Z,33.01
2019-04-01T04:10:07.089Z,32.07
2019-04-01T04:11:07.330Z,30.36
2019-04-01T04:13:11.476Z,29.61
2019-04-01T04:14:11.707Z,28.00
2019-04-01T04:16:15.920Z,26.77
2019-04-01T04:17:16.120Z,27.06
2019-04-01T04:19:20.281Z,28.09
2019-04-01T04:20:20.517Z,28.57
2019-04-01T04:22:24.664Z,27.91
2019-04-01T04:23:24.902Z,27.15
2019-04-01T04:25:29.065Z,28.66
2019-04-01T04:26:29.300Z,28.76
2019-04-01T04:28:33.444Z,26.68
2019-04-01T04:29:33.683Z,23.46
2019-04-01T04:31:37.858Z,22.61
2019-04-01T04:32:38.082Z,22.33
2019-04-01T04:34:42.260Z,20.43
2019-04-01T04:35:42.490Z,18.16
2019-04-01T04:37:46.635Z,16.08
2019-04-01T04:38:46.872Z,16.17
2019-04-01T04:40:51.054Z,14.28
2019-04-01T04:41:51.293Z,13.90
2019-04-01T04:43:55.440Z,15.70
2019-04-01T04:44:55.680Z,14.95
2019-04-01T04:46:59.878Z,16.08
2019-04-01T04:48:00.087Z,14.95
2019-04-01T04:49:53.179Z,15.14
2019-04-01T04:50:53.417Z,16.17
2019-04-01T04:52:57.558Z,17.12
2019-04-01T04:53:57.803Z,17.41
2019-04-01T04:56:01.960Z,17.03
2019-04-01T04:57:02.199Z,15.99
2019-04-01T04:59:06.343Z,15.89
2019-04-01T05:00:06.578Z,16.74
2019-04-01T05:02:10.752Z,15.69
2019-04-01T05:03:10.990Z,12.66
2019-04-01T05:05:15.162Z,13.80
2019-04-01T05:06:15.392Z,13.61
2019-04-01T05:08:19.533Z,13.33
2019-04-01T05:09:19.771Z,10.02
2019-04-01T05:11:23.937Z,11.82
2019-04-01T05:12:24.176Z,12.30
2019-04-01T05:14:28.323Z,9.17
2019-04-01T05:15:28.560Z,10.12
2019-04-01T05:17:32.724Z,12.87
2019-04-01T05:18:32.960Z,13.81
2019-04-01T05:20:37.126Z,12.87
2019-04-01T05:21:37.359Z,13.81
2019-04-01T05:23:41.506Z,12.77
2019-04-01T05:24:41.745Z,14.57
2019-04-01T05:26:45.908Z,17.60
2019-04-01T05:27:46.147Z,19.20
2019-04-01T05:29:39.221Z,20.43
2019-04-01T05:30:39.456Z,20.53
2019-04-01T05:32:43.650Z,22.89
2019-04-01T05:33:54.755Z,22.33
2019-04-01T05:35:48.052Z,22.23
2019-04-01T05:36:48.289Z,22.99
2019-04-01T05:38:53.448Z,23.93
2019-04-01T05:39:53.683Z,23.93
2019-04-01T05:41:57.853Z,25.16
2019-04-01T05:42:58.092Z,25.35
2019-04-01T05:45:02.261Z,30.00
2019-04-01T05:46:02.472Z,31.99
2019-04-01T05:48:06.645Z,37.10
2019-04-01T05:49:06.877Z,38.24
2019-04-01T05:51:11.044Z,38.33
2019-04-01T05:52:11.281Z,38.43
2019-04-01T05:54:15.427Z,40.98
2019-04-01T05:55:15.664Z,45.34
2019-04-01T05:57:19.829Z,46.31
2019-04-01T05:58:20.068Z,45.55
2019-04-01T06:00:13.141Z,47.53
2019-04-01T06:01:13.381Z,49.90
2019-04-01T06:03:17.546Z,57.39
2019-04-01T06:04:17.791Z,69.35
2019-04-01T06:06:21.957Z,95.12
2019-04-01T06:07:22.194Z,99.99
2019-04-01T06:09:27.357Z,99.99
2019-04-01T06:10:27.594Z,99.99
2019-04-01T06:12:31.773Z,99.99
2019-04-01T06:13:32.012Z,99.99
2019-04-01T06:15:36.183Z,99.99
2019-04-01T06:16:36.417Z,99.99
2019-04-01T06:18:40.559Z,99.99
2019-04-01T06:19:40.796Z,99.99
2019-04-01T06:21:44.962Z,99.99
2019-04-01T06:22:45.197Z,99.99
2019-04-01T06:24:49.345Z,96.22
2019-04-01T06:25:49.579Z,94.60
2019-04-01T06:27:53.745Z,93.08
2019-04-01T06:28:53.976Z,91.79
2019-04-01T06:30:58.142Z,89.89
2019-04-01T06:31:58.383Z,88.93
2019-04-01T06:34:02.525Z,82.98
2019-04-01T06:35:02.764Z,82.12
2019-04-01T06:37:06.926Z,76.57
2019-04-01T06:38:07.169Z,75.43
2019-04-01T06:40:00.479Z,73.24
2019-04-01T06:41:00.483Z,71.72
2019-04-01T06:43:04.650Z,71.84
2019-04-01T06:44:04.885Z,69.84
2019-04-01T06:46:09.071Z,68.98
2019-04-01T06:47:09.305Z,69.81
2019-04-01T06:49:13.451Z,69.08
2019-04-01T06:50:13.687Z,68.60
2019-04-01T06:52:17.858Z,68.28
2019-04-01T06:53:18.102Z,69.81
2019-04-01T06:55:22.251Z,72.63
2019-04-01T06:56:22.485Z,76.79
2019-04-01T06:58:26.664Z,75.59
2019-04-01T06:59:26.903Z,74.38
2019-04-01T07:01:31.074Z,70.42
2019-04-01T07:02:31.313Z,71.37
2019-04-01T07:04:35.461Z,67.30
2019-04-01T07:05:35.702Z,65.67
2019-04-01T07:07:39.872Z,66.38
2019-04-01T07:08:40.113Z,64.85
2019-04-01T07:10:44.262Z,62.49
2019-04-01T07:11:44.642Z,61.72
2019-04-01T07:13:48.679Z,62.78
2019-04-01T07:14:48.919Z,60.80
2019-04-01T07:16:53.092Z,60.13
2019-04-01T07:17:53.333Z,60.93
2019-04-01T07:19:46.424Z,59.63
2019-04-01T07:20:46.655Z,60.20
2019-04-01T07:22:50.832Z,60.96
2019-04-01T07:23:51.072Z,60.87
2019-04-01T07:25:55.226Z,59.34
2019-04-01T07:26:55.467Z,58.70
2019-04-01T07:28:59.642Z,57.93
2019-04-01T07:29:59.887Z,57.68
2019-04-01T07:32:04.061Z,58.32
2019-04-01T07:33:04.296Z,58.00
2019-04-01T07:35:08.471Z,59.53
2019-04-01T07:36:08.715Z,59.88
2019-04-01T07:38:12.892Z,61.98
2019-04-01T07:39:13.134Z,63.42
2019-04-01T07:41:17.290Z,61.98
2019-04-01T07:42:17.536Z,62.08
2019-04-01T07:44:21.715Z,61.16
2019-04-01T07:45:21.959Z,60.87
2019-04-01T07:47:26.145Z,63.99
2019-04-01T07:48:26.390Z,62.94
2019-04-01T07:50:30.630Z,61.63
2019-04-01T07:51:30.792Z,61.82
2019-04-01T07:53:34.987Z,61.54
2019-04-01T07:54:35.219Z,61.63
2019-04-01T07:56:39.374Z,60.96
2019-04-01T07:57:39.625Z,61.72
2019-04-01T07:59:32.729Z,60.10
2019-04-01T08:00:32.973Z,61.06
2019-04-01T08:02:37.164Z,62.04
2019-04-01T08:03:37.407Z,60.90
2019-04-01T08:05:41.569Z,60.68
2019-04-01T08:06:41.810Z,61.06
2019-04-01T08:08:46.398Z,59.84
2019-04-01T08:09:46.241Z,60.42
2019-04-01T08:11:50.401Z,60.33
2019-04-01T08:12:50.651Z,59.88
2019-04-01T08:14:54.831Z,57.51
2019-04-01T08:15:55.076Z,57.97
2019-04-01T08:17:59.266Z,57.58
2019-04-01T08:18:59.510Z,58.09
2019-04-01T08:21:03.675Z,57.04
2019-04-01T08:22:03.919Z,57.13
2019-04-01T08:24:08.106Z,56.94
2019-04-01T08:25:08.349Z,57.51
2019-04-01T08:27:12.521Z,56.20
2019-04-01T08:28:12.762Z,57.04
2019-04-01T08:30:05.873Z,56.68
2019-04-01T08:31:06.118Z,55.63
2019-04-01T08:33:10.311Z,57.54
2019-04-01T08:34:10.557Z,56.61
2019-04-01T08:36:14.723Z,55.46
2019-04-01T08:37:14.973Z,54.82
2019-04-01T08:39:19.157Z,53.74
2019-04-01T08:40:19.403Z,54.15
2019-04-01T08:42:23.570Z,54.03
2019-04-01T08:43:23.818Z,55.18
2019-04-01T08:45:28.007Z,54.99
2019-04-01T08:46:28.253Z,54.63
2019-04-01T08:48:35.450Z,53.72
2019-04-01T08:49:32.703Z,52.86
2019-04-01T08:51:36.866Z,53.70
2019-04-01T08:52:37.112Z,53.44
2019-04-01T08:54:41.302Z,51.71
2019-04-01T08:55:41.550Z,52.02
2019-04-01T08:57:45.720Z,51.42
2019-04-01T08:58:45.967Z,52.19
2019-04-01T09:00:50.157Z,51.35
2019-04-01T09:01:50.472Z,51.35
2019-04-01T09:03:54.593Z,51.51
2019-04-01T09:04:54.843Z,52.36
2019-04-01T09:06:59.014Z,52.00
2019-04-01T09:07:59.264Z,51.54
2019-04-01T09:09:52.385Z,52.28
2019-04-01T09:10:52.634Z,52.38
2019-04-01T09:12:56.800Z,52.86
2019-04-01T09:13:57.048Z,51.45
2019-04-01T09:16:01.240Z,50.34
2019-04-01T09:17:01.492Z,50.34
2019-04-01T09:19:05.685Z,49.52
2019-04-01T09:20:05.936Z,50.75
2019-04-01T09:22:10.108Z,50.34
2019-04-01T09:23:10.359Z,48.93
2019-04-01T09:25:14.552Z,50.03
2019-04-01T09:26:14.802Z,50.96
2019-04-01T09:28:18.976Z,49.48
2019-04-01T09:29:19.226Z,49.67
2019-04-01T09:31:23.420Z,49.77
2019-04-01T09:32:23.670Z,49.41
2019-04-01T09:34:27.865Z,48.71
2019-04-01T09:35:28.114Z,50.32
2019-04-01T09:37:32.288Z,50.49
2019-04-01T09:38:32.539Z,53.60
2019-04-01T09:40:36.798Z,51.51
2019-04-01T09:41:36.984Z,51.57
2019-04-01T09:43:41.181Z,49.77
2019-04-01T09:44:41.430Z,49.96
2019-04-01T09:46:48.813Z,49.12
2019-04-01T09:47:45.853Z,48.30
2019-04-01T09:49:38.984Z,48.33
2019-04-01T09:50:39.232Z,49.96
2019-04-01T09:52:43.445Z,49.89
2019-04-01T09:53:43.653Z,48.64
2019-04-01T09:55:47.857Z,47.34
2019-04-01T09:56:48.102Z,47.15
2019-04-01T09:58:52.276Z,47.13
2019-04-01T09:59:52.527Z,47.99
2019-04-01T10:01:56.724Z,50.40
2019-04-01T10:02:56.975Z,47.44
2019-04-01T10:05:01.171Z,46.81
2019-04-01T10:06:01.424Z,47.27
2019-04-01T10:08:05.599Z,47.80
2019-04-01T10:09:05.850Z,48.07
2019-04-01T10:11:12.573Z,49.82
2019-04-01T10:12:10.302Z,49.24
2019-04-01T10:14:14.475Z,47.31
2019-04-01T10:15:14.729Z,46.84
2019-04-01T10:17:18.929Z,49.19
2019-04-01T10:18:19.180Z,47.05
2019-04-01T10:20:12.306Z,47.31
2019-04-01T10:21:12.559Z,47.51
2019-04-01T10:23:16.734Z,49.48
2019-04-01T10:24:16.986Z,49.15
2019-04-01T10:26:21.190Z,46.77
2019-04-01T10:27:21.440Z,46.28
2019-04-01T10:29:25.623Z,48.18
2019-04-01T10:30:25.874Z,48.02
2019-04-01T10:32:30.072Z,45.83
2019-04-01T10:33:30.326Z,45.90
2019-04-01T10:35:34.523Z,46.86
2019-04-01T10:36:34.775Z,46.86
2019-04-01T10:38:38.952Z,45.92
2019-04-01T10:39:39.218Z,45.59
2019-04-01T10:41:43.403Z,48.85
2019-04-01T10:42:43.656Z,48.76
2019-04-01T10:44:47.834Z,49.60
2019-04-01T10:45:48.087Z,49.79
2019-04-01T10:47:52.323Z,50.01
2019-04-01T10:48:52.621Z,48.08
2019-04-01T10:50:56.743Z,46.81
2019-04-01T10:51:57.033Z,46.91
2019-04-01T10:54:01.248Z,47.03
2019-04-01T10:55:01.419Z,47.99
2019-04-01T10:57:05.642Z,48.40
2019-04-01T10:58:05.878Z,48.28
2019-04-01T10:59:58.984Z,48.28
2019-04-01T11:00:59.252Z,46.33
2019-04-01T11:03:06.000Z,47.97
2019-04-01T11:04:03.682Z,47.49
2019-04-01T11:06:07.896Z,48.47
2019-04-01T11:07:08.334Z,48.07
2019-04-01T11:09:12.343Z,50.10
2019-04-01T11:10:12.558Z,48.74
2019-04-01T11:12:16.763Z,47.08
2019-04-01T11:13:17.015Z,46.31
2019-04-01T11:15:21.218Z,47.27
2019-04-01T11:16:21.469Z,47.94
2019-04-01T11:18:25.646Z,48.30
2019-04-01T11:19:25.898Z,47.82
2019-04-01T11:21:30.102Z,48.11
2019-04-01T11:22:31.790Z,46.57
2019-04-01T11:24:34.537Z,45.36
2019-04-01T11:25:34.790Z,45.83
2019-04-01T11:27:38.988Z,44.67
2019-04-01T11:28:39.266Z,45.44
2019-04-01T11:30:43.471Z,45.83
2019-04-01T11:31:43.690Z,46.77
2019-04-01T11:33:47.878Z,47.99
2019-04-01T11:34:48.164Z,47.53
2019-04-01T11:36:52.376Z,48.57
2019-04-01T11:37:52.656Z,48.35
2019-04-01T11:39:45.723Z,48.49
2019-04-01T11:40:45.932Z,51.37
2019-04-01T11:42:50.252Z,49.48
2019-04-01T11:43:50.428Z,49.10
2019-04-01T11:45:54.582Z,49.22
2019-04-01T11:46:54.923Z,49.43
2019-04-01T11:48:59.010Z,47.99
2019-04-01T11:49:59.307Z,49.91
2019-04-01T11:52:03.467Z,47.53
2019-04-01T11:53:03.709Z,48.11
2019-04-01T11:55:08.896Z,48.18
2019-04-01T11:56:08.139Z,47.34
2019-04-01T11:58:12.335Z,45.94
2019-04-01T11:59:12.587Z,44.89
2019-04-01T12:01:16.790Z,45.68
2019-04-01T12:02:17.044Z,44.21
2019-04-01T12:04:21.955Z,44.69
2019-04-01T12:05:21.888Z,44.32
2019-04-01T12:07:25.672Z,44.89
2019-04-01T12:08:25.923Z,46.33
2019-04-01T12:10:30.105Z,47.34
2019-04-01T12:11:30.355Z,45.87
2019-04-01T12:13:34.556Z,44.85
2019-04-01T12:14:34.808Z,44.56
2019-04-01T12:16:39.013Z,44.04
2019-04-01T12:17:41.526Z,45.05
2019-04-01T12:19:32.376Z,46.47
2019-04-01T12:20:32.622Z,46.01
2019-04-01T12:22:36.818Z,47.24
2019-04-01T12:23:37.072Z,47.00
2019-04-01T12:25:41.245Z,45.15
2019-04-01T12:26:41.497Z,45.44
2019-04-01T12:28:45.696Z,45.22
2019-04-01T12:29:48.224Z,45.53
2019-04-01T12:31:51.623Z,43.54
2019-04-01T12:32:50.398Z,45.77
2019-04-01T12:34:54.581Z,45.17
2019-04-01T12:35:54.832Z,44.69
2019-04-01T12:37:59.030Z,43.75
2019-04-01T12:38:59.280Z,43.27
2019-04-01T12:41:03.458Z,46.91
2019-04-01T12:42:03.712Z,46.88
2019-04-01T12:44:07.910Z,44.74
2019-04-01T12:45:08.173Z,46.62
2019-04-01T12:47:12.358Z,44.96
2019-04-01T12:48:12.609Z,46.04
2019-04-01T12:50:05.718Z,45.58
2019-04-01T12:51:05.964Z,44.90
2019-04-01T12:53:10.163Z,44.69
2019-04-01T12:54:10.415Z,44.90
2019-04-01T12:56:14.593Z,43.12
2019-04-01T12:57:18.464Z,43.29
2019-04-01T12:59:19.045Z,45.41
2019-04-01T13:00:19.298Z,44.73
2019-04-01T13:02:23.500Z,45.20
2019-04-01T13:03:23.749Z,45.58
2019-04-01T13:05:27.927Z,43.65
2019-04-01T13:06:28.180Z,47.10
2019-04-01T13:08:32.382Z,46.42
2019-04-01T13:09:32.651Z,46.93
2019-04-01T13:11:36.816Z,45.48
2019-04-01T13:12:37.070Z,45.41
2019-04-01T13:14:41.274Z,44.23
2019-04-01T13:15:41.519Z,43.65
2019-04-01T13:17:45.720Z,44.98
2019-04-01T13:18:47.205Z,45.17
2019-04-01T13:20:51.832Z,47.27
2019-04-01T13:21:50.412Z,47.27
2019-04-01T13:23:54.618Z,47.36
2019-04-01T13:24:54.922Z,47.72
2019-04-01T13:27:00.170Z,45.65
2019-04-01T13:27:59.382Z,43.65
2019-04-01T13:29:52.908Z,43.05
2019-04-01T13:30:52.805Z,44.55
2019-04-01T13:32:57.007Z,46.47
2019-04-01T13:33:57.255Z,45.51
2019-04-01T13:36:01.464Z,46.26
2019-04-01T13:37:01.751Z,46.95
2019-04-01T13:39:05.953Z,46.28
2019-04-01T13:40:06.205Z,46.47
2019-04-01T13:42:10.387Z,47.22
2019-04-01T13:43:11.461Z,48.18
2019-04-01T13:45:14.846Z,46.19
2019-04-01T13:46:15.083Z,45.99
2019-04-01T13:48:19.610Z,45.80
2019-04-01T13:49:19.531Z,47.53
2019-04-01T13:51:23.706Z,48.64
2019-04-01T13:52:23.960Z,48.74
2019-04-01T13:54:28.164Z,48.90
2019-04-01T13:55:28.413Z,50.15
2019-04-01T13:57:32.591Z,49.57
2019-04-01T13:58:32.844Z,49.65
2019-04-01T14:00:37.050Z,52.69
2019-04-01T14:01:37.298Z,51.09
2019-04-01T14:03:41.495Z,49.24
2019-04-01T14:04:41.757Z,50.56
2019-04-01T14:06:45.930Z,50.70
2019-04-01T14:07:46.184Z,50.32
2019-04-01T14:09:39.309Z,50.54
2019-04-01T14:10:40.612Z,50.46
2019-04-01T14:12:43.731Z,50.08
2019-04-01T14:13:43.995Z,49.22
2019-04-01T14:15:51.227Z,49.77
2019-04-01T14:16:48.658Z,50.73
2019-04-01T14:18:52.862Z,51.45
2019-04-01T14:19:53.117Z,51.47
2019-04-01T14:21:57.292Z,52.34
2019-04-01T14:22:57.692Z,51.54
2019-04-01T14:25:01.983Z,52.48
2019-04-01T14:26:02.375Z,53.66
2019-04-01T14:28:06.545Z,53.63
2019-04-01T14:29:07.645Z,53.72
2019-04-01T14:31:11.159Z,53.63
2019-04-01T14:32:11.442Z,53.34
2019-04-01T14:34:22.948Z,54.30
2019-04-01T14:35:15.921Z,55.29
2019-04-01T14:37:26.122Z,53.82
2019-04-01T14:38:20.410Z,54.08
2019-04-01T14:40:13.594Z,54.58
2019-04-01T14:41:13.842Z,54.30
2019-04-01T14:43:18.011Z,54.39
2019-04-01T14:44:18.264Z,54.49
2019-04-01T14:46:22.462Z,55.16
2019-04-01T14:47:22.798Z,53.91
2019-04-01T14:49:26.915Z,53.08
2019-04-01T14:50:27.166Z,52.48
2019-04-01T14:52:32.934Z,54.49
2019-04-01T14:53:31.609Z,54.49
2019-04-01T14:55:35.817Z,54.56
2019-04-01T14:56:36.073Z,54.68
2019-04-01T14:58:40.263Z,55.26
2019-04-01T14:59:40.511Z,55.64
2019-04-01T15:01:44.709Z,55.33
2019-04-01T15:02:44.961Z,56.09
2019-04-01T15:04:49.158Z,55.26
2019-04-01T15:05:49.429Z,55.55
2019-04-01T15:07:53.586Z,56.29
2019-04-01T15:08:53.841Z,56.86
2019-04-01T15:10:58.042Z,57.31
2019-04-01T15:11:58.292Z,57.12
2019-04-01T15:14:03.482Z,58.65
2019-04-01T15:15:04.114Z,58.08
2019-04-01T15:17:07.936Z,58.01
2019-04-01T15:18:10.008Z,57.06
2019-04-01T15:20:01.305Z,56.09
2019-04-01T15:21:01.554Z,56.76
2019-04-01T15:23:05.729Z,56.26
2019-04-01T15:24:05.977Z,57.21
2019-04-01T15:26:10.173Z,60.25
2019-04-01T15:27:10.419Z,60.44
2019-04-01T15:29:14.598Z,59.20
2019-04-01T15:30:14.850Z,58.24
2019-04-01T15:32:19.039Z,59.84
2019-04-01T15:33:19.283Z,60.13
2019-04-01T15:35:23.479Z,61.37
2019-04-01T15:36:23.729Z,61.66
2019-04-01T15:38:27.909Z,63.86
2019-04-01T15:39:28.153Z,61.94
2019-04-01T15:41:32.347Z,62.97
2019-04-01T15:42:32.597Z,63.54
2019-04-01T15:44:37.950Z,63.57
2019-04-01T15:45:37.009Z,64.05
2019-04-01T15:47:41.197Z,65.11
2019-04-01T15:48:41.464Z,63.57
2019-04-01T15:50:45.633Z,62.87
2019-04-01T15:51:45.879Z,63.35
2019-04-01T15:53:50.048Z,61.69
2019-04-01T15:54:50.309Z,62.46
2019-04-01T15:56:54.491Z,68.29
2019-04-01T15:57:54.729Z,64.95
2019-04-01T15:59:47.825Z,66.22
2019-04-01T16:00:48.073Z,65.52
2019-04-01T16:02:52.278Z,65.04
2019-04-01T16:03:52.518Z,65.36
2019-04-01T16:05:57.719Z,68.58
2019-04-01T16:06:57.966Z,66.47
2019-04-01T16:09:02.129Z,66.38
2019-04-01T16:10:02.373Z,66.96
2019-04-01T16:12:06.572Z,71.16
2019-04-01T16:13:06.819Z,68.16
2019-04-01T16:15:10.982Z,70.07
2019-04-01T16:16:14.279Z,68.35
2019-04-01T16:18:15.410Z,69.41
2019-04-01T16:19:15.657Z,70.07
2019-04-01T16:21:19.839Z,75.43
2019-04-01T16:22:20.083Z,71.80
2019-04-01T16:24:25.259Z,70.81
2019-04-01T16:25:25.504Z,74.63
2019-04-01T16:27:29.695Z,73.73
2019-04-01T16:28:29.942Z,73.44
2019-04-01T16:30:34.112Z,75.45
2019-04-01T16:31:34.355Z,75.30
2019-04-01T16:33:38.545Z,74.98
2019-04-01T16:34:41.969Z,74.30
2019-04-01T16:36:42.969Z,76.98
2019-04-01T16:37:43.220Z,76.03
2019-04-01T16:39:36.310Z,76.21
2019-04-01T16:40:36.547Z,76.98
2019-04-01T16:42:40.734Z,78.51
2019-04-01T16:43:40.978Z,80.41
2019-04-01T16:45:45.144Z,79.14
2019-04-01T16:46:45.384Z,77.89
2019-04-01T16:48:49.565Z,78.28
2019-04-01T16:49:49.806Z,81.14
2019-04-01T16:51:53.998Z,82.91
2019-04-01T16:52:54.241Z,83.29
2019-04-01T16:54:58.399Z,84.92
2019-04-01T16:55:58.642Z,82.63
2019-04-01T16:58:03.218Z,82.72
2019-04-01T16:59:03.068Z,83.20
2019-04-01T17:01:07.226Z,85.11
2019-04-01T17:02:17.770Z,86.49
2019-04-01T17:04:11.651Z,86.11
2019-04-01T17:05:11.885Z,88.12
2019-04-01T17:07:19.403Z,87.54
2019-04-01T17:08:16.315Z,88.88
2019-04-01T17:10:09.393Z,87.64
2019-04-01T17:11:09.633Z,88.78
2019-04-01T17:13:13.813Z,89.40
2019-04-01T17:14:14.056Z,89.31
2019-04-01T17:16:18.210Z,91.13
2019-04-01T17:17:18.450Z,90.55
2019-04-01T17:19:22.624Z,91.69
2019-04-01T17:20:22.870Z,93.41
2019-04-01T17:22:27.040Z,94.41
2019-04-01T17:23:28.264Z,94.79
2019-04-01T17:25:31.437Z,95.75
2019-04-01T17:26:31.675Z,95.27
2019-04-01T17:28:35.888Z,96.41
2019-04-01T17:29:36.130Z,97.36
2019-04-01T17:31:40.300Z,99.18
2019-04-01T17:32:40.532Z,99.60
2019-04-01T17:34:45.031Z,99.79
2019-04-01T17:35:44.947Z,99.99
2019-04-01T17:37:49.113Z,99.99
2019-04-01T17:38:49.352Z,99.99
2019-04-01T17:40:53.502Z,99.99
2019-04-01T17:41:53.746Z,99.99
2019-04-01T17:43:57.923Z,99.99
2019-04-01T17:44:58.162Z,99.99
2019-04-01T17:47:02.315Z,99.99
2019-04-01T17:48:04.324Z,99.99
2019-04-01T17:49:55.654Z,99.99
2019-04-01T17:50:55.893Z,99.99
2019-04-01T17:53:00.106Z,99.99
2019-04-01T17:54:01.116Z,99.99
2019-04-01T17:56:04.490Z,99.99
2019-04-01T17:57:04.765Z,99.99
2019-04-01T17:59:08.936Z,99.99
2019-04-01T18:00:09.176Z,99.99
2019-04-01T18:02:13.327Z,99.99
2019-04-01T18:03:13.561Z,99.99
2019-04-01T18:05:17.851Z,99.99
2019-04-01T18:06:18.075Z,99.99
2019-04-01T18:08:22.245Z,99.99
2019-04-01T18:09:22.526Z,99.99
2019-04-01T18:11:26.683Z,99.99
2019-04-01T18:12:26.922Z,99.99
2019-04-01T18:14:31.105Z,99.99
2019-04-01T18:15:31.378Z,99.99
2019-04-01T18:17:35.524Z,99.99
2019-04-01T18:18:35.762Z,99.99
2019-04-01T18:20:39.931Z,99.99
2019-04-01T18:21:40.173Z,99.99
2019-04-01T18:23:44.419Z,99.99
2019-04-01T18:24:44.677Z,99.99
2019-04-01T18:26:48.828Z,99.99
2019-04-01T18:27:49.103Z,99.99
2019-04-01T18:29:42.203Z,99.99
2019-04-01T18:30:42.473Z,99.99
2019-04-01T18:32:46.639Z,99.99
2019-04-01T18:33:55.992Z,99.99
2019-04-01T18:35:51.093Z,99.99
2019-04-01T18:36:52.198Z,99.99
2019-04-01T18:38:55.562Z,99.99
2019-04-01T18:39:57.225Z,99.99
2019-04-01T18:41:59.965Z,99.99
2019-04-01T18:43:00.440Z,99.99
2019-04-01T18:45:04.371Z,99.99
2019-04-01T18:46:04.609Z,99.99
2019-04-01T18:48:08.862Z,99.99
2019-04-01T18:49:09.126Z,99.99
2019-04-01T18:51:13.313Z,99.99
2019-04-01T18:52:13.527Z,99.99
2019-04-01T18:54:17.704Z,99.99
2019-04-01T18:55:17.946Z,99.99
2019-04-01T18:57:22.086Z,99.99
2019-04-01T18:58:22.322Z,99.99
2019-04-01T19:00:15.417Z,99.99
2019-04-01T19:01:16.105Z,99.99
2019-04-01T19:03:19.827Z,99.99
2019-04-01T19:04:20.065Z,99.99
2019-04-01T19:06:24.243Z,99.99
2019-04-01T19:07:24.479Z,99.99
2019-04-01T19:09:28.645Z,99.99
2019-04-01T19:10:28.888Z,99.99
2019-04-01T19:12:33.029Z,99.99
2019-04-01T19:13:33.267Z,99.99
2019-04-01T19:15:38.797Z,99.99
2019-04-01T19:16:37.670Z,99.99
2019-04-01T19:18:42.098Z,99.99
2019-04-01T19:19:42.719Z,99.99
2019-04-01T19:21:46.228Z,99.99
2019-04-01T19:22:46.464Z,99.99
2019-04-01T19:24:50.630Z,99.99
2019-04-01T19:25:50.866Z,99.99
2019-04-01T19:27:55.013Z,99.99
2019-04-01T19:28:58.055Z,99.99
2019-04-01T19:30:59.419Z,99.99
2019-04-01T19:31:59.669Z,99.99
2019-04-01T19:34:03.827Z,99.99
2019-04-01T19:35:04.953Z,99.99
2019-04-01T19:37:08.209Z,99.99
2019-04-01T19:38:08.444Z,99.99
2019-04-01T19:40:01.549Z,99.99
2019-04-01T19:41:01.781Z,99.99